Time;durP1;ratioP1;P1;durP2;ratioP2;P2;SDS_P1;SDS_P2;PMS_P1;PMS_P2;Temp;Humidity;BMP_temperature;BMP_pressure;BME280_temperature;BME280_humidity;BME280_pressure;Samples;Min_cycle;Max_cycle;Signal;HPM_P1;HPM_P2
2021/12/03 00:01:14;;;;;;;29.77;14.20;;;;;;;-0.65;100.00;97772.50;4884884;29;20064;-74
2021/12/03 00:03:40;;;;;;;30.38;17.50;;;;;;;-0.66;100.00;97781.38;4884058;29;20068;-74
2021/12/03 00:06:06;;;;;;;27.52;14.15;;;;;;;-0.62;100.00;97782.81;4918578;29;20051;-74
2021/12/03 00:08:32;;;;;;;32.80;16.02;;;;;;;-0.65;100.00;97767.19;4902294;29;20522;-74
2021/12/03 00:11:01;;;;;;;27.52;12.57;;;;;;;-0.85;100.00;97735.16;4900857;29;20059;-73
2021/12/03 00:13:29;;;;;;;28.58;14.43;;;;;;;-0.66;100.00;97770.78;4902188;29;20064;-74
2021/12/03 00:15:56;;;;;;;28.38;15.02;;;;;;;-0.66;100.00;97773.44;4902580;29;20060;-73
2021/12/03 00:18:22;;;;;;;26.67;12.88;;;;;;;-0.64;100.00;97779.47;4887597;29;20529;-73
2021/12/03 00:20:49;;;;;;;31.52;15.43;;;;;;;-0.59;100.00;97787.88;4901868;29;20135;-73
2021/12/03 00:23:16;;;;;;;28.02;13.40;;;;;;;-0.79;100.00;97761.19;4913756;29;20048;-74
2021/12/03 00:25:42;;;;;;;28.52;13.90;;;;;;;-0.63;100.00;97776.69;4897769;29;20049;-72
2021/12/03 00:28:08;;;;;;;26.33;12.52;;;;;;;-0.54;100.00;97789.19;4885576;29;20096;-73
2021/12/03 00:30:35;;;;;;;24.75;14.90;;;;;;;-0.53;100.00;97779.41;4884737;29;20114;-74
2021/12/03 00:33:02;;;;;;;26.67;13.68;;;;;;;-0.57;100.00;97770.88;4913646;29;20060;-75
2021/12/03 00:35:27;;;;;;;23.52;11.40;;;;;;;-0.52;100.00;97773.13;4932841;29;20068;-74
2021/12/03 00:37:53;;;;;;;27.75;14.70;;;;;;;-0.48;100.00;97779.84;4917131;29;20136;-73
2021/12/03 00:40:30;;;;;;;26.05;14.07;;;;;;;-0.50;100.00;97772.03;4917123;29;20059;-73
2021/12/03 00:42:56;;;;;;;25.25;13.18;;;;;;;-0.43;100.00;97768.88;4886186;29;20085;-73
2021/12/03 00:45:22;;;;;;;26.65;14.25;;;;;;;-0.49;100.00;97762.25;4883384;29;20120;-74
2021/12/03 00:47:48;;;;;;;26.20;12.43;;;;;;;-0.39;100.00;97779.09;4898099;29;20060;-73
2021/12/03 00:50:18;;;;;;;23.73;13.07;;;;;;;-0.50;100.00;97749.97;4897295;29;20052;-73
2021/12/03 00:52:44;;;;;;;26.92;14.73;;;;;;;-0.39;100.00;97768.50;4899457;29;20060;-74
2021/12/03 00:55:11;;;;;;;23.45;12.48;;;;;;;-0.33;100.00;97777.72;4882223;29;20061;-72
2021/12/03 00:57:37;;;;;;;25.02;15.55;;;;;;;-0.25;100.00;97781.44;4897179;29;20052;-71
2021/12/03 01:00:06;;;;;;;22.30;11.27;;;;;;;-0.26;100.00;97790.38;4897825;29;20151;-73
2021/12/03 01:02:32;;;;;;;24.88;14.00;;;;;;;-0.39;100.00;97757.88;4898118;29;20081;-71
2021/12/03 01:04:58;;;;;;;27.05;13.68;;;;;;;-0.48;100.00;97742.69;4897264;29;20584;-73
2021/12/03 01:07:24;;;;;;;23.58;13.23;;;;;;;-0.34;100.00;97754.81;4882630;29;20434;-74
2021/12/03 01:09:50;;;;;;;21.73;10.98;;;;;;;-0.14;100.00;97782.34;4865811;29;20048;-74
2021/12/03 01:12:16;;;;;;;27.05;11.82;;;;;;;-0.17;100.00;97778.13;4881563;29;20068;-72
2021/12/03 01:14:42;;;;;;;23.10;12.43;;;;;;;-0.14;100.00;97763.75;4865898;29;20087;-73
2021/12/03 01:17:08;;;;;;;23.48;13.07;;;;;;;-0.12;100.00;97762.63;4865529;29;20091;-73
2021/12/03 01:19:34;;;;;;;26.38;13.15;;;;;;;-0.16;100.00;97763.03;4897535;29;20057;-72
2021/12/03 01:22:01;;;;;;;25.67;12.13;;;;;;;-0.12;100.00;97769.78;4895021;29;20056;-71
2021/12/03 01:24:27;;;;;;;22.15;12.85;;;;;;;-0.12;100.00;97775.06;4894986;29;20506;-71
2021/12/03 01:26:54;;;;;;;24.25;13.25;;;;;;;-0.08;100.00;97781.81;4863550;29;20057;-72
2021/12/03 01:29:21;;;;;;;21.48;11.43;;;;;;;-0.06;100.00;97795.81;4894932;29;20063;-70
2021/12/03 01:31:47;;;;;;;21.83;13.45;;;;;;;-0.02;100.00;97786.59;4859957;29;20053;-70
2021/12/03 01:34:14;;;;;;;22.10;12.80;;;;;;;-0.02;100.00;97795.41;4891935;29;20083;-73
2021/12/03 01:36:40;;;;;;;22.73;10.93;;;;;;;-0.43;100.00;97724.59;4875655;29;20057;-70
2021/12/03 01:39:07;;;;;;;22.83;13.45;;;;;;;0.03;100.00;97800.31;4875979;29;20071;-71
2021/12/03 01:41:33;;;;;;;24.15;10.77;;;;;;;0.00;100.00;97800.63;4892819;29;20057;-75
2021/12/03 01:44:03;;;;;;;23.92;11.50;;;;;;;0.05;100.00;97813.50;4914688;29;20087;-72
2021/12/03 01:46:31;;;;;;;22.02;9.10;;;;;;;0.08;100.00;97814.06;4914005;29;20149;-71
2021/12/03 01:48:57;;;;;;;22.60;10.43;;;;;;;0.03;100.00;97816.25;4914496;29;20080;-71
2021/12/03 01:51:23;;;;;;;20.33;9.82;;;;;;;0.09;100.00;97826.38;4897370;29;20060;-72
2021/12/03 01:53:49;;;;;;;24.50;10.80;;;;;;;0.07;100.00;97815.03;4897773;29;20052;-72
2021/12/03 01:56:16;;;;;;;20.23;10.32;;;;;;;0.12;100.00;97825.28;4894972;29;20055;-72
2021/12/03 01:58:44;;;;;;;23.02;10.85;;;;;;;0.16;100.00;97824.03;4894907;29;20124;-72
2021/12/03 02:01:12;;;;;;;21.33;9.70;;;;;;;0.17;100.00;97825.72;4880698;29;20061;-71
2021/12/03 02:03:40;;;;;;;22.60;9.00;;;;;;;0.14;100.00;97816.19;4896018;29;20135;-70
2021/12/03 02:06:08;;;;;;;25.15;11.60;;;;;;;0.19;100.00;97837.91;4911630;29;20159;-72
2021/12/03 02:08:33;;;;;;;20.77;10.63;;;;;;;0.19;100.00;97835.25;4910941;29;20060;-70
2021/12/03 02:11:00;;;;;;;22.23;10.07;;;;;;;0.20;100.00;97839.59;4894161;29;20056;-70
2021/12/03 02:13:25;;;;;;;22.73;10.43;;;;;;;0.10;100.00;97825.41;4909532;29;20088;-72
2021/12/03 02:15:51;;;;;;;21.58;12.95;;;;;;;0.18;100.00;97846.00;4896125;29;20127;-71
2021/12/03 02:18:18;;;;;;;22.65;11.23;;;;;;;0.13;100.00;97833.09;4894417;29;20124;-71
2021/12/03 02:20:45;;;;;;;24.88;13.15;;;;;;;0.09;100.00;97837.00;4894751;29;20060;-71
2021/12/03 02:23:13;;;;;;;21.80;11.10;;;;;;;0.12;100.00;97846.53;4905861;29;20421;-70
2021/12/03 02:25:39;;;;;;;23.05;11.65;;;;;;;0.11;100.00;97858.97;4930930;29;20552;-72
2021/12/03 02:28:05;;;;;;;23.42;11.35;;;;;;;0.14;100.00;97847.22;4913873;29;20490;-71
2021/12/03 02:30:31;;;;;;;26.80;12.52;;;;;;;0.12;100.00;97836.75;4914798;29;20103;-69
2021/12/03 02:32:57;;;;;;;28.88;12.27;;;;;;;0.06;100.00;97837.25;4911387;29;20064;-70
2021/12/03 02:35:24;;;;;;;27.40;13.27;;;;;;;-0.17;100.00;97825.94;4912375;29;20052;-71
2021/12/03 02:37:50;;;;;;;26.70;13.27;;;;;;;-0.08;100.00;97840.25;4911257;29;20052;-71
2021/12/03 02:40:17;;;;;;;23.25;13.23;;;;;;;-0.09;100.00;97822.63;4910168;29;20064;-70
2021/12/03 02:42:43;;;;;;;24.60;13.00;;;;;;;-0.10;100.00;97842.19;4893776;29;20418;-71
2021/12/03 02:45:11;;;;;;;24.77;12.75;;;;;;;-0.36;100.00;97805.41;4893895;29;20495;-70
2021/12/03 02:47:37;;;;;;;28.63;15.95;;;;;;;-0.16;100.00;97832.09;4909364;29;20151;-71
2021/12/03 02:50:04;;;;;;;26.40;11.93;;;;;;;-0.26;100.00;97822.25;4896191;29;20091;-70
2021/12/03 02:52:30;;;;;;;25.67;12.93;;;;;;;-0.26;100.00;97835.53;4896666;29;20064;-72
2021/12/03 02:54:56;;;;;;;26.85;13.85;;;;;;;-0.41;100.00;97815.53;4851053;29;20083;-72
2021/12/03 02:57:22;;;;;;;25.67;13.95;;;;;;;-0.30;100.00;97846.50;4898450;29;20101;-71
2021/12/03 02:59:47;;;;;;;27.75;14.23;;;;;;;-0.36;100.00;97847.03;4881799;29;20105;-71
2021/12/03 03:02:13;;;;;;;27.23;12.85;;;;;;;-0.37;100.00;97863.91;4865945;29;20128;-71
2021/12/03 03:04:39;;;;;;;28.02;14.32;;;;;;;-0.32;100.00;97870.53;4847702;29;20148;-71
2021/12/03 03:07:05;;;;;;;23.98;12.55;;;;;;;-0.29;100.00;97864.97;4894400;29;20523;-72
2021/12/03 03:09:31;;;;;;;26.48;12.80;;;;;;;-0.21;100.00;97867.00;4878279;29;20049;-74
2021/12/03 03:11:58;;;;;;;29.10;12.82;;;;;;;-0.20;100.00;97857.22;4868186;29;20330;-73
2021/12/03 03:14:25;;;;;;;28.67;15.02;;;;;;;-0.06;100.00;97862.22;4898414;29;20056;-71
2021/12/03 03:16:52;;;;;;;28.25;14.40;;;;;;;-0.03;100.00;97873.41;4881154;29;20592;-72
2021/12/03 03:19:22;;;;;;;25.15;12.65;;;;;;;0.02;100.00;97866.88;4898509;29;20124;-72
2021/12/03 03:21:48;;;;;;;26.83;13.75;;;;;;;-0.09;100.00;97855.34;4898564;29;20148;-71
2021/12/03 03:24:15;;;;;;;24.02;11.65;;;;;;;0.08;100.00;97869.88;4899551;29;20067;-71
2021/12/03 03:26:44;;;;;;;27.45;15.25;;;;;;;0.11;100.00;97877.56;4899119;29;20060;-71
2021/12/03 03:29:12;;;;;;;26.52;15.00;;;;;;;0.15;100.00;97872.84;4898846;29;20126;-72
2021/12/03 03:31:39;;;;;;;26.48;12.68;;;;;;;0.16;100.00;97870.06;4897742;29;20049;-72
2021/12/03 03:34:06;;;;;;;25.15;12.00;;;;;;;0.03;100.00;97848.13;4897143;29;20053;-71
2021/12/03 03:36:39;;;;;;;25.38;11.20;;;;;;;-0.02;100.00;97853.00;4896783;29;20076;-71
2021/12/03 03:39:08;;;;;;;26.90;13.30;;;;;;;0.20;100.00;97871.47;4882055;29;20045;-72
2021/12/03 03:41:34;;;;;;;23.17;11.65;;;;;;;0.28;100.00;97892.06;4915327;29;20048;-72
2021/12/03 03:44:00;;;;;;;28.75;12.73;;;;;;;0.30;100.00;97897.28;4915753;29;20131;-73
2021/12/03 03:46:26;;;;;;;30.27;13.88;;;;;;;0.33;100.00;97886.34;4915703;29;20060;-74
2021/12/03 03:48:52;;;;;;;27.50;12.77;;;;;;;0.33;100.00;97902.31;4899053;29;20146;-71
2021/12/03 03:51:18;;;;;;;30.10;13.73;;;;;;;0.18;100.00;97857.50;4896815;29;20060;-73
2021/12/03 03:53:44;;;;;;;26.65;14.45;;;;;;;0.34;100.00;97877.44;4896593;29;20080;-71
2021/12/03 03:56:10;;;;;;;27.98;12.63;;;;;;;0.29;100.00;97890.25;4881323;29;20059;-73
2021/12/03 03:58:41;;;;;;;29.38;14.82;;;;;;;0.20;100.00;97879.44;4881522;29;20064;-74
2021/12/03 04:01:08;;;;;;;24.85;14.05;;;;;;;0.21;100.00;97894.41;4896566;29;20069;-73
2021/12/03 04:03:34;;;;;;;28.40;18.27;;;;;;;0.01;100.00;97867.84;4896450;29;20080;-72
2021/12/03 04:06:01;;;;;;;27.98;15.57;;;;;;;0.15;100.00;97897.59;4883149;29;20080;-73
2021/12/03 04:08:29;;;;;;;28.35;14.02;;;;;;;0.07;100.00;97892.06;4895751;29;20104;-71
2021/12/03 04:10:56;;;;;;;28.70;13.52;;;;;;;0.12;100.00;97911.13;4884006;29;20629;-69
2021/12/03 04:13:22;;;;;;;29.45;14.55;;;;;;;0.10;100.00;97891.81;4904954;29;20120;-69
2021/12/03 04:15:48;;;;;;;27.73;12.60;;;;;;;0.11;100.00;97909.47;4869187;29;20076;-69
2021/12/03 04:18:15;;;;;;;25.05;11.38;;;;;;;0.10;100.00;97915.72;4904014;29;20049;-69
2021/12/03 04:20:41;;;;;;;29.08;12.65;;;;;;;-0.01;100.00;97913.97;4886171;29;20052;-67
2021/12/03 04:23:07;;;;;;;28.40;14.38;;;;;;;-0.01;100.00;97926.41;4896802;29;20152;-70
2021/12/03 04:25:34;;;;;;;32.50;14.25;;;;;;;-0.07;100.00;97921.63;4895513;29;20511;-75
2021/12/03 04:28:01;;;;;;;30.85;18.40;;;;;;;-0.16;100.00;97898.47;4881628;29;20052;-71
2021/12/03 04:30:29;;;;;;;26.63;14.10;;;;;;;0.04;100.00;97928.66;4885910;29;20056;-72
2021/12/03 04:32:55;;;;;;;31.42;13.38;;;;;;;0.07;100.00;97934.56;4889851;29;20044;-71
2021/12/03 04:35:22;;;;;;;29.25;13.05;;;;;;;0.02;100.00;97925.31;4861301;29;20458;-74
2021/12/03 04:37:48;;;;;;;26.58;12.23;;;;;;;0.04;100.00;97931.31;4889316;29;20488;-73
2021/12/03 04:40:17;;;;;;;27.50;13.20;;;;;;;0.10;100.00;97931.66;4894291;29;20100;-72
2021/12/03 04:42:43;;;;;;;27.15;13.73;;;;;;;0.10;100.00;97929.00;4875302;29;20495;-71
2021/12/03 04:45:10;;;;;;;29.33;12.05;;;;;;;0.15;100.00;97926.81;4860869;29;20088;-72
2021/12/03 04:47:36;;;;;;;29.77;13.05;;;;;;;0.13;100.00;97934.06;4894804;29;20164;-72
2021/12/03 04:50:07;;;;;;;29.17;15.13;;;;;;;0.24;100.00;97931.34;4910965;29;20495;-70
2021/12/03 04:52:33;;;;;;;26.08;13.75;;;;;;;0.16;100.00;97928.50;4896527;29;20064;-72
2021/12/03 04:54:59;;;;;;;27.30;12.30;;;;;;;0.29;100.00;97943.41;4916444;29;20060;-71
2021/12/03 04:57:24;;;;;;;25.77;12.43;;;;;;;0.31;100.00;97949.44;4914336;29;20127;-71
2021/12/03 04:59:50;;;;;;;29.58;15.32;;;;;;;0.36;100.00;97960.53;4914083;29;20056;-71
2021/12/03 05:02:19;;;;;;;24.25;12.27;;;;;;;0.16;100.00;97925.84;4898314;29;20067;-72
2021/12/03 05:04:45;;;;;;;25.20;12.82;;;;;;;0.35;100.00;97969.47;4913995;29;20067;-71
2021/12/03 05:09:37;;;;;;;24.17;12.40;;;;;;;0.08;100.00;97925.66;4895428;29;20455;-71
2021/12/03 05:12:04;;;;;;;24.17;11.70;;;;;;;0.30;100.00;97963.72;4893182;29;20112;-72
2021/12/03 05:14:31;;;;;;;27.05;11.88;;;;;;;0.31;100.00;97976.03;4909621;29;20459;-70
2021/12/03 05:16:57;;;;;;;23.25;11.52;;;;;;;0.26;100.00;97975.53;4892576;29;20059;-67
2021/12/03 05:19:23;;;;;;;25.58;12.30;;;;;;;0.28;100.00;97978.94;4899504;29;20048;-66
2021/12/03 05:21:49;;;;;;;25.88;12.30;;;;;;;0.31;100.00;97984.00;4929355;29;20399;-68
2021/12/03 05:24:15;;;;;;;28.08;14.90;;;;;;;0.36;100.00;97987.09;4922622;29;20045;-71
2021/12/03 05:26:41;;;;;;;30.85;14.15;;;;;;;0.43;100.00;97993.59;4894764;29;20060;-68
2021/12/03 05:29:08;;;;;;;26.35;13.57;;;;;;;0.39;100.00;97997.47;4911671;29;20060;-66
2021/12/03 05:31:36;;;;;;;26.65;14.65;;;;;;;0.44;100.00;98000.63;4897859;29;20060;-66
2021/12/03 05:34:03;;;;;;;25.77;13.10;;;;;;;0.39;100.00;97997.47;4910725;29;20083;-66
2021/12/03 05:36:29;;;;;;;24.42;12.30;;;;;;;0.39;100.00;97993.00;4895112;29;20121;-67
2021/12/03 05:38:55;;;;;;;21.55;10.88;;;;;;;0.45;100.00;98002.28;4895924;29;20057;-66
2021/12/03 05:41:21;;;;;;;23.02;12.52;;;;;;;0.42;100.00;98010.53;4894618;29;20112;-65
2021/12/03 05:43:47;;;;;;;23.98;11.15;;;;;;;0.26;100.00;98004.78;4893799;29;20072;-66
2021/12/03 05:46:12;;;;;;;26.05;14.00;;;;;;;0.26;100.00;98004.78;4894348;29;20053;-66
2021/12/03 05:48:38;;;;;;;27.83;13.85;;;;;;;0.22;100.00;98021.00;4895378;29;20104;-66
2021/12/03 05:51:04;;;;;;;25.10;11.38;;;;;;;0.20;100.00;98024.75;4910014;29;20060;-66
2021/12/03 05:53:30;;;;;;;26.58;13.05;;;;;;;-0.12;100.00;97988.38;4896315;29;20068;-67
2021/12/03 05:55:56;;;;;;;24.67;12.65;;;;;;;0.08;100.00;98015.97;4912870;29;20135;-65
2021/12/03 05:58:22;;;;;;;29.05;13.40;;;;;;;0.13;100.00;98040.34;4909790;29;20062;-65
2021/12/03 06:00:48;;;;;;;32.92;15.73;;;;;;;0.15;100.00;98032.25;4914371;29;20048;-62
2021/12/03 06:03:14;;;;;;;25.75;12.88;;;;;;;0.12;100.00;98033.34;4913491;29;20075;-69
2021/12/03 06:05:40;;;;;;;28.10;14.98;;;;;;;0.08;100.00;98034.56;4913079;29;20478;-66
2021/12/03 06:08:07;;;;;;;25.58;12.73;;;;;;;0.17;100.00;98046.25;4882079;29;20472;-70
2021/12/03 06:10:33;;;;;;;27.05;15.13;;;;;;;0.21;100.00;98048.53;4893643;29;20092;-71
2021/12/03 06:12:59;;;;;;;28.08;13.85;;;;;;;0.12;100.00;98028.03;4876839;29;20097;-67
2021/12/03 06:15:25;;;;;;;24.20;10.95;;;;;;;0.27;100.00;98043.69;4876339;29;20081;-63
2021/12/03 06:17:51;;;;;;;26.98;14.70;;;;;;;0.20;100.00;98036.22;4901181;29;20131;-69
2021/12/03 06:20:18;;;;;;;28.65;14.73;;;;;;;0.19;100.00;98034.53;4910327;29;20477;-71
2021/12/03 06:22:44;;;;;;;29.40;15.43;;;;;;;0.19;100.00;98050.47;4848642;29;20060;-71
2021/12/03 06:25:11;;;;;;;30.60;16.10;;;;;;;0.13;100.00;98050.97;4881865;29;20094;-71
2021/12/03 06:27:38;;;;;;;28.40;14.88;;;;;;;0.06;100.00;98041.81;4910700;29;20065;-71
2021/12/03 06:30:09;;;;;;;29.73;16.50;;;;;;;-0.04;100.00;98032.91;4884490;29;20048;-71
2021/12/03 06:32:36;;;;;;;31.50;13.93;;;;;;;0.13;100.00;98060.75;4912030;29;20069;-71
2021/12/03 06:35:04;;;;;;;30.17;16.17;;;;;;;0.26;100.00;98055.25;4901195;29;20049;-71
2021/12/03 06:37:30;;;;;;;29.27;15.50;;;;;;;0.53;100.00;98046.84;4905410;29;20108;-70
2021/12/03 06:39:56;;;;;;;27.13;13.50;;;;;;;1.23;100.00;98056.81;4908732;29;20540;-72
2021/12/03 06:42:22;;;;;;;27.88;14.00;;;;;;;1.52;99.80;98046.31;4900160;29;20139;-72
2021/12/03 06:44:48;;;;;;;26.92;14.50;;;;;;;1.38;98.63;98018.22;4875483;29;20059;-75
2021/12/03 06:47:14;;;;;;;26.40;14.30;;;;;;;1.42;99.75;98056.91;4872227;29;20085;-71
2021/12/03 06:49:40;;;;;;;28.83;14.57;;;;;;;0.79;100.00;98053.47;4889565;29;20489;-74
2021/12/03 06:52:10;;;;;;;27.17;15.05;;;;;;;0.72;100.00;98093.03;4874931;29;20523;-73
2021/12/03 06:54:36;;;;;;;26.25;13.80;;;;;;;0.56;100.00;98079.34;4875463;29;20123;-71
2021/12/03 06:57:05;;;;;;;26.80;14.40;;;;;;;0.46;100.00;98062.44;4905683;29;20521;-72
2021/12/03 06:59:31;;;;;;;23.88;14.25;;;;;;;0.60;100.00;98095.88;4871289;29;20144;-72
2021/12/03 07:01:58;;;;;;;26.40;14.95;;;;;;;0.50;100.00;98079.84;4885560;29;20155;-72
2021/12/03 07:04:24;;;;;;;26.98;11.25;;;;;;;0.55;100.00;98098.94;4869890;29;20052;-74
2021/12/03 07:06:51;;;;;;;23.83;11.55;;;;;;;0.58;100.00;98097.81;4875222;29;20075;-73
2021/12/03 07:09:17;;;;;;;23.52;12.43;;;;;;;0.55;100.00;98093.59;4840397;29;20061;-73
2021/12/03 07:11:43;;;;;;;22.73;12.18;;;;;;;0.56;100.00;98095.28;4858236;29;20049;-72
2021/12/03 07:14:09;;;;;;;23.63;13.02;;;;;;;0.61;100.00;98098.41;4903855;29;20522;-72
2021/12/03 07:16:36;;;;;;;25.05;14.45;;;;;;;0.56;100.00;98103.25;4871656;29;20057;-72
2021/12/03 07:19:03;;;;;;;26.75;15.07;;;;;;;0.61;100.00;98114.34;4900322;29;20456;-71
2021/12/03 07:21:29;;;;;;;22.90;13.52;;;;;;;0.59;100.00;98084.41;4909057;29;20061;-70
2021/12/03 07:23:55;;;;;;;21.70;10.70;;;;;;;0.65;100.00;98070.56;4868302;29;20056;-66
2021/12/03 07:26:23;;;;;;;18.83;8.93;;;;;;;0.51;100.00;98038.97;4887200;29;20149;-66
2021/12/03 07:28:49;;;;;;;23.70;13.95;;;;;;;0.72;100.00;98101.00;4883379;29;20059;-70
2021/12/03 07:31:16;;;;;;;27.27;11.98;;;;;;;0.52;100.00;98061.97;4898674;29;20064;-74
2021/12/03 07:33:41;;;;;;;22.10;11.77;;;;;;;0.59;100.00;98079.09;4876404;29;20051;-73
2021/12/03 07:36:08;;;;;;;21.33;13.50;;;;;;;0.51;100.00;98064.72;4874004;29;20491;-73
2021/12/03 07:38:35;;;;;;;22.70;11.35;;;;;;;0.84;100.00;98114.25;4881150;29;20060;-69
2021/12/03 07:41:02;;;;;;;23.83;12.70;;;;;;;0.86;100.00;98113.16;4881500;29;20061;-71
2021/12/03 07:43:28;;;;;;;22.63;12.75;;;;;;;0.53;100.00;98071.59;4891009;29;20514;-75
2021/12/03 07:45:54;;;;;;;22.73;12.23;;;;;;;0.57;100.00;98096.97;4881819;29;20488;-71
2021/12/03 07:48:22;;;;;;;23.08;12.75;;;;;;;0.79;100.00;98137.75;4884320;29;20059;-68
2021/12/03 07:50:49;;;;;;;24.63;13.13;;;;;;;0.79;100.00;98135.09;4894918;29;20061;-72
2021/12/03 07:53:19;;;;;;;21.95;12.00;;;;;;;0.78;100.00;98133.41;4871254;29;20067;-71
2021/12/03 07:55:46;;;;;;;24.20;12.35;;;;;;;0.77;100.00;98139.66;4881217;29;20507;-68
2021/12/03 07:58:12;;;;;;;28.95;14.25;;;;;;;0.76;100.00;98149.47;4864979;29;20100;-68
2021/12/03 08:00:37;;;;;;;23.10;13.02;;;;;;;0.62;100.00;98113.41;4881570;29;20067;-67
2021/12/03 08:03:04;;;;;;;22.27;12.35;;;;;;;0.80;100.00;98134.09;4884456;29;20533;-70
2021/12/03 08:05:30;;;;;;;25.42;12.95;;;;;;;0.80;100.00;98128.78;4869585;29;20064;-70
2021/12/03 08:07:58;;;;;;;19.50;11.02;;;;;;;0.79;100.00;98127.09;4889957;29;20061;-67
2021/12/03 08:10:24;;;;;;;24.00;12.40;;;;;;;0.66;100.00;98106.84;4885317;29;20052;-68
2021/12/03 08:12:50;;;;;;;26.48;12.18;;;;;;;0.71;100.00;98103.81;4896695;29;20143;-66
2021/12/03 08:15:16;;;;;;;22.70;12.23;;;;;;;0.95;100.00;98133.69;4868110;29;20152;-67
2021/12/03 08:17:42;;;;;;;23.23;12.10;;;;;;;0.94;99.07;98131.13;4871375;29;20064;-66
2021/12/03 08:20:11;;;;;;;21.23;9.73;;;;;;;1.06;98.64;98145.22;4899431;29;20056;-66
2021/12/03 08:22:37;;;;;;;21.80;10.95;;;;;;;1.04;99.15;98131.22;4868378;29;20106;-67
2021/12/03 08:25:03;;;;;;;19.40;10.15;;;;;;;1.03;98.72;98126.88;4889124;29;20057;-71
2021/12/03 08:27:29;;;;;;;21.25;10.45;;;;;;;1.10;98.12;98115.59;4869893;29;20059;-70
2021/12/03 08:29:55;;;;;;;18.30;10.10;;;;;;;1.11;96.52;98121.75;4888225;29;20056;-71
2021/12/03 08:32:21;;;;;;;19.20;10.15;;;;;;;1.13;96.24;98125.97;4877877;29;20057;-71
2021/12/03 08:34:47;;;;;;;21.25;10.32;;;;;;;1.24;96.25;98138.34;4888039;29;20125;-70
2021/12/03 08:37:13;;;;;;;17.58;9.15;;;;;;;1.23;94.80;98149.16;4871992;29;20152;-72
2021/12/03 08:39:39;;;;;;;17.67;8.75;;;;;;;1.31;94.44;98162.63;4903578;29;20118;-71
2021/12/03 08:42:07;;;;;;;18.95;8.70;;;;;;;1.26;93.90;98157.72;4897673;29;20167;-72
2021/12/03 08:44:33;;;;;;;20.58;8.70;;;;;;;1.26;92.58;98140.91;4896900;29;20492;-69
2021/12/03 08:47:07;;;;;;;19.00;8.57;;;;;;;1.31;92.75;98128.03;4902345;29;20067;-70
2021/12/03 08:49:52;;;;;;;18.85;8.45;;;;;;;1.47;91.65;98149.72;4890352;29;20063;-70
2021/12/03 08:54:51;;;;;;;19.73;8.48;;;;;;;1.55;91.29;98157.91;4886270;29;20065;-73
2021/12/03 08:57:21;;;;;;;16.85;9.45;;;;;;;1.48;91.79;98151.41;4885127;29;20511;-69
2021/12/03 08:59:47;;;;;;;17.25;9.50;;;;;;;1.29;92.69;98125.50;4902909;29;20093;-70
2021/12/03 09:02:13;;;;;;;18.23;8.65;;;;;;;1.49;92.04;98163.75;4907605;29;20063;-70
2021/12/03 09:04:39;;;;;;;20.80;8.73;;;;;;;1.50;93.01;98167.25;4897117;29;20060;-70
2021/12/03 09:07:05;;;;;;;18.23;9.23;;;;;;;1.28;93.08;98134.47;4897774;29;20427;-69
2021/12/03 09:09:31;;;;;;;17.35;9.27;;;;;;;1.29;93.53;98140.66;4883591;29;20052;-70
2021/12/03 09:11:58;;;;;;;18.73;7.53;;;;;;;1.34;93.60;98125.94;4916953;29;20064;-70
2021/12/03 09:16:59;;;;;;;18.40;10.15;;;;;;;1.26;95.07;98156.88;4899625;29;20074;-69
2021/12/03 09:19:31;;;;;;;16.98;8.35;;;;;;;1.28;95.64;98162.91;4916417;29;20079;-70
2021/12/03 09:21:57;;;;;;;18.92;10.45;;;;;;;1.28;96.04;98160.22;4899357;29;20052;-70
2021/12/03 09:24:30;;;;;;;21.58;10.77;;;;;;;1.16;95.60;98149.66;4916083;29;20079;-71
2021/12/03 09:26:57;;;;;;;19.00;10.30;;;;;;;1.22;95.80;98168.75;4900495;29;20063;-69
2021/12/03 09:29:29;;;;;;;17.85;8.88;;;;;;;1.23;96.18;98170.44;4916576;29;20102;-69
2021/12/03 09:31:56;;;;;;;18.48;9.50;;;;;;;1.31;95.91;98175.94;4896096;29;20080;-71
2021/12/03 09:34:24;;;;;;;19.13;10.57;;;;;;;1.31;95.34;98155.50;4895829;29;20106;-71
2021/12/03 09:36:49;;;;;;;21.23;9.48;;;;;;;1.23;95.38;98142.00;4849595;29;20052;-69
2021/12/03 09:39:19;;;;;;;20.77;10.55;;;;;;;1.24;96.37;98150.81;4865347;29;20089;-70
2021/12/03 09:41:45;;;;;;;21.38;11.45;;;;;;;1.14;96.16;98148.94;4881186;29;20220;-69
2021/12/03 09:44:11;;;;;;;18.55;9.55;;;;;;;1.10;96.27;98134.22;4865463;29;20602;-69
2021/12/03 09:46:37;;;;;;;20.73;9.57;;;;;;;1.11;96.66;98127.91;4895580;29;20451;-69
2021/12/03 09:51:37;;;;;;;20.83;10.15;;;;;;;1.13;97.16;98149.94;4880530;29;20056;-70
2021/12/03 09:54:26;;;;;;;21.30;9.55;;;;;;;1.20;96.52;98159.06;4894957;29;20056;-70
2021/12/03 09:56:57;;;;;;;18.65;10.15;;;;;;;1.11;96.31;98153.69;4883067;29;20044;-69
2021/12/03 09:59:53;;;;;;;19.48;10.27;;;;;;;1.20;96.55;98175.03;4895613;29;20052;-70
2021/12/03 10:13:31;;;;;;;18.63;8.77;;;;;;;1.26;95.96;98178.16;4894640;29;20581;-71
2021/12/03 10:29:16;;;;;;;17.70;9.10;;;;;;;1.22;96.85;98168.75;4871805;29;20075;-70
2021/12/03 10:39:43;;;;;;;21.52;9.63;;;;;;;1.11;97.47;98149.19;4895887;29;20068;-69
2021/12/03 10:45:27;;;;;;;21.05;10.93;;;;;;;1.12;98.08;98155.38;4915400;29;20060;-70
2021/12/03 10:58:27;;;;;;;26.17;14.75;;;;;;;1.00;98.58;98151.91;4893958;29;20065;-70
2021/12/03 11:52:13;;;;;;;18.50;10.18;;;;;;;0.96;98.38;98187.75;4884018;29;19935;-67
2021/12/03 13:13:50;;;;;;;25.02;11.00;;;;;;;0.71;100.00;98106.47;4864886;29;20215;-69
2021/12/03 13:19:10;;;;;;;23.85;11.43;;;;;;;0.65;100.00;98099.00;4897239;29;20080;-69
2021/12/03 14:00:43;;;;;;;21.85;10.75;;;;;;;0.58;100.00;98072.06;4879054;29;20053;-70
2021/12/03 14:11:48;;;;;;;30.60;14.93;;;;;;;0.36;100.00;98086.28;4876697;29;20440;-68
2021/12/03 14:57:14;;;;;;;39.78;19.38;;;;;;;-0.28;100.00;98073.75;4879217;29;20053;-76
2021/12/03 14:59:58;;;;;;;36.40;17.88;;;;;;;-0.28;100.00;98063.13;4889228;29;20132;-72
2021/12/03 15:02:45;;;;;;;40.60;15.93;;;;;;;-0.34;100.00;98052.16;4889763;29;20167;-72
2021/12/03 15:07:44;;;;;;;36.05;17.33;;;;;;;-0.33;100.00;98052.03;4870376;29;20524;-72
2021/12/03 15:10:19;;;;;;;39.47;16.10;;;;;;;-0.30;100.00;98046.47;4890085;29;20552;-67
2021/12/03 15:31:01;;;;;;;36.92;18.48;;;;;;;-0.59;100.00;98002.81;4872043;29;20537;-74
2021/12/03 15:36:17;;;;;;;40.85;19.42;;;;;;;-0.40;100.00;98037.56;4875494;29;20104;-73
2021/12/03 15:39:13;;;;;;;35.17;16.90;;;;;;;-0.55;100.00;98009.56;4893026;29;20048;-79
2021/12/03 15:51:51;;;;;;;35.22;17.48;;;;;;;-0.42;100.00;98034.19;4882213;29;20060;-78
2021/12/03 15:58:27;;;;;;;34.50;16.02;;;;;;;-0.47;100.00;98015.13;4869150;29;20065;-75
2021/12/03 16:03:53;;;;;;;38.30;17.95;;;;;;;-0.67;100.00;97960.13;4890814;29;20079;-75
2021/12/03 16:06:28;;;;;;;40.30;19.20;;;;;;;-0.64;100.00;97963.38;4889449;29;20076;-71
2021/12/03 16:08:58;;;;;;;38.40;15.95;;;;;;;-0.50;100.00;97988.84;4877330;29;20056;-74
2021/12/03 16:14:23;;;;;;;38.50;17.40;;;;;;;-0.41;100.00;97998.69;4871949;29;20060;-73
2021/12/03 16:19:26;;;;;;;43.13;20.85;;;;;;;-0.41;100.00;97993.38;4887233;29;20496;-74
2021/12/03 16:22:45;;;;;;;41.75;19.15;;;;;;;-0.49;100.00;97987.84;4903446;29;20059;-77
2021/12/03 16:43:57;;;;;;;40.33;17.10;;;;;;;-0.56;100.00;97929.13;4858793;29;20171;-70
2021/12/03 16:46:51;;;;;;;37.92;15.68;;;;;;;-0.35;100.00;97949.59;4895211;29;20062;-69
2021/12/03 16:52:03;;;;;;;42.53;20.85;;;;;;;-0.81;100.00;97879.84;4871478;29;20525;-69
2021/12/03 16:54:41;;;;;;;42.35;18.10;;;;;;;-0.42;100.00;97938.63;4903699;29;20056;-69
2021/12/03 16:57:09;;;;;;;40.05;17.17;;;;;;;-0.42;100.00;97943.09;4892722;29;20364;-68
2021/12/03 16:59:37;;;;;;;43.95;18.92;;;;;;;-0.74;100.00;97877.53;4893055;29;20147;-67
2021/12/03 17:04:52;;;;;;;43.95;18.48;;;;;;;-0.66;100.00;97893.66;4907970;29;20056;-68
2021/12/03 17:08:14;;;;;;;43.17;19.20;;;;;;;-0.58;100.00;97916.97;4899345;29;20057;-68
2021/12/03 17:45:17;;;;;;;65.35;26.38;;;;;;;-0.52;100.00;97916.44;4880542;29;20506;-67